HomeShort term forecast

Short term forecast

Graphical weather forecast for the next 48 hours for Montreal:

Short term forecast

This weather forecast is automatically refreshed every 3 hours.

Hourly Experimental Forecast for the next 48 hours

Overall summary: Partly cloudy throughout the day.

 Date & Hour   Temp   Feel   Baro   Hum   Speed & Bearing   Wind Gust   Precip.%   Precip.   Visibility   Cloud cover   Conditions 
 23/09/2020 - 12:00  19.6°C  19.6°C  1008.3 hPa  67%  15.5 km/h   23.6 km/h  0%  --  16.1km  32%  Partly Cloudy 
 23/09/2020 - 13:00  21.5°C  21.5°C  1008.0 hPa  61%  18.0 km/h   26.5 km/h  2%  0.01 mm/h  16.1km  28%  Clear 
 23/09/2020 - 14:00  22.5°C  22.5°C  1007.6 hPa  59%  20.1 km/h   27.4 km/h  2%  0.02 mm/h  16.1km  18%  Clear 
 23/09/2020 - 15:00  23.0°C  23.0°C  1007.6 hPa  58%  21.1 km/h   29.2 km/h  2%  0.04 mm/h  16.1km  11%  Clear 
 23/09/2020 - 16:00  22.8°C  22.8°C  1008.0 hPa  57%  21.5 km/h   30.5 km/h  2%  0.02 mm/h  16.1km  7%  Clear 
 23/09/2020 - 17:00  22.2°C  22.2°C  1008.2 hPa  58%  20.8 km/h   31.3 km/h  2%  0.05 mm/h  16.1km  5%  Clear 
 23/09/2020 - 18:00  21.1°C  21.1°C  1008.7 hPa  61%  18.5 km/h   31.6 km/h  2%  0.02 mm/h  16.1km  6%  Clear 
 23/09/2020 - 19:00  19.6°C  19.6°C  1009.3 hPa  66%  14.2 km/h   27.7 km/h  2%  0.01 mm/h  16.1km  14%  Clear 
 23/09/2020 - 20:00  18.7°C  18.7°C  1009.6 hPa  69%  13.5 km/h   33.9 km/h  4%  0.04 mm/h  16.1km  21%  Clear 
 23/09/2020 - 21:00  17.5°C  17.5°C  1010.3 hPa  73%  11.1 km/h   27.3 km/h  0%  --  16.1km  8%  Clear 
 23/09/2020 - 22:00  16.5°C  16.5°C  1010.6 hPa  76%  10.2 km/h   23.4 km/h  3%  0.03 mm/h  16.1km  4%  Clear 
 23/09/2020 - 23:00  15.6°C  15.6°C  1011.1 hPa  78%  9.6 km/h   20.7 km/h  3%  0.02 mm/h  16.1km  0%  Clear 
 24/09/2020 - 00:00  14.7°C  14.7°C  1011.4 hPa  80%  8.8 km/h   16.9 km/h  3%  0.02 mm/h  16.1km  0%  Clear 
 24/09/2020 - 01:00  13.9°C  13.9°C  1011.6 hPa  83%  8.2 km/h   12.0 km/h  0%  --  16.1km  0%  Clear 
 24/09/2020 - 02:00  13.2°C  13.2°C  1011.6 hPa  85%  7.9 km/h   9.7 km/h  2%  0.01 mm/h  16.1km  0%  Clear 
 24/09/2020 - 03:00  12.5°C  12.5°C  1011.7 hPa  89%  8.5 km/h   11.1 km/h  0%  --  16.1km  1%  Clear 
 24/09/2020 - 04:00  11.8°C  11.8°C  1011.5 hPa  91%  9.6 km/h   14.6 km/h  0%  --  16.1km  2%  Clear 
 24/09/2020 - 05:00  11.3°C  11.3°C  1011.5 hPa  93%  10.5 km/h   17.5 km/h  0%  --  16.1km  3%  Clear 
 24/09/2020 - 06:00  11.4°C  11.4°C  1011.9 hPa  94%  11.2 km/h   19.2 km/h  0%  --  16.1km  5%  Clear 
 24/09/2020 - 07:00  11.7°C  11.7°C  1012.3 hPa  95%  11.7 km/h   20.3 km/h  0%  --  16.1km  9%  Clear 
 24/09/2020 - 08:00  12.5°C  12.5°C  1012.8 hPa  95%  12.0 km/h   20.8 km/h  0%  --  16.1km  16%  Clear 
 24/09/2020 - 09:00  13.6°C  13.6°C  1013.2 hPa  92%  12.0 km/h   20.5 km/h  4%  0.02 mm/h  16.1km  31%  Partly Cloudy 
 24/09/2020 - 10:00  15.1°C  15.1°C  1013.3 hPa  88%  11.8 km/h   19.4 km/h  13%  0.10 mm/h  16.1km  50%  Partly Cloudy 
 24/09/2020 - 11:00  16.3°C  16.3°C  1013.5 hPa  85%  11.5 km/h   17.8 km/h  17%  0.18 mm/h  16.1km  64%  Mostly Cloudy 
 24/09/2020 - 12:00  17.4°C  17.4°C  1013.5 hPa  81%  11.2 km/h   15.3 km/h  9%  0.11 mm/h  16.1km  65%  Mostly Cloudy 
 24/09/2020 - 13:00  18.3°C  18.3°C  1013.5 hPa  76%  10.8 km/h   12.3 km/h  4%  0.03 mm/h  16.1km  65%  Mostly Cloudy 
 24/09/2020 - 14:00  19.3°C  19.3°C  1013.6 hPa  71%  10.4 km/h   10.4 km/h  0%  --  16.1km  64%  Mostly Cloudy 
 24/09/2020 - 15:00  20.3°C  20.3°C  1013.6 hPa  68%  10.1 km/h   10.1 km/h  0%  --  16.1km  63%  Mostly Cloudy 
 24/09/2020 - 16:00  20.9°C  20.9°C  1013.5 hPa  65%  9.7 km/h   9.7 km/h  0%  --  16.1km  61%  Mostly Cloudy 
 24/09/2020 - 17:00  20.9°C  20.9°C  1013.7 hPa  64%  9.2 km/h   9.2 km/h  2%  0.01 mm/h  16.1km  59%  Partly Cloudy 
 24/09/2020 - 18:00  19.8°C  19.8°C  1014.2 hPa  67%  8.1 km/h   8.1 km/h  0%  --  16.1km  54%  Partly Cloudy 
 24/09/2020 - 19:00  18.1°C  18.1°C  1014.8 hPa  72%  6.8 km/h   6.8 km/h  2%  0.01 mm/h  16.1km  49%  Partly Cloudy 
 24/09/2020 - 20:00  16.9°C  16.9°C  1015.4 hPa  75%  6.3 km/h   6.3 km/h  2%  0.01 mm/h  16.1km  47%  Partly Cloudy 
 24/09/2020 - 21:00  16.0°C  16.0°C  1015.8 hPa  74%  7.2 km/h   7.2 km/h  2%  0.01 mm/h  16.1km  53%  Partly Cloudy 
 24/09/2020 - 22:00  15.3°C  15.3°C  1016.3 hPa  73%  8.9 km/h   9.6 km/h  0%  --  16.1km  62%  Mostly Cloudy 
 24/09/2020 - 23:00  14.6°C  14.6°C  1016.5 hPa  71%  10.4 km/h   13.0 km/h  0%  --  16.1km  71%  Mostly Cloudy 
 25/09/2020 - 00:00  13.8°C  13.8°C  1016.5 hPa  68%  11.2 km/h   15.6 km/h  0%  --  16.1km  77%  Mostly Cloudy 
 25/09/2020 - 01:00  13.2°C  13.2°C  1016.6 hPa  65%  11.9 km/h   17.8 km/h  0%  --  16.1km  82%  Mostly Cloudy 
 25/09/2020 - 02:00  12.7°C  12.7°C  1016.5 hPa  62%  12.4 km/h   19.6 km/h  2%  0.01 mm/h  16.1km  85%  Mostly Cloudy 
 25/09/2020 - 03:00  11.9°C  11.9°C  1016.6 hPa  61%  12.9 km/h   21.1 km/h  0%  --  16.1km  82%  Mostly Cloudy 
 25/09/2020 - 04:00  11.0°C  11.0°C  1016.7 hPa  62%  13.2 km/h   22.2 km/h  0%  --  16.1km  78%  Mostly Cloudy 
 25/09/2020 - 05:00  10.2°C  10.2°C  1016.7 hPa  62%  13.3 km/h   22.6 km/h  0%  --  16.1km  74%  Mostly Cloudy 
 25/09/2020 - 06:00  9.8°C  8.0°C  1017.1 hPa  63%  13.1 km/h   21.9 km/h  0%  --  16.1km  71%  Mostly Cloudy 
 25/09/2020 - 07:00  9.6°C  7.8°C  1018.0 hPa  64%  12.6 km/h   20.5 km/h  0%  --  16.1km  68%  Mostly Cloudy 
 25/09/2020 - 08:00  9.8°C  8.1°C  1018.5 hPa  66%  12.1 km/h   18.6 km/h  3%  0.01 mm/h  16.1km  67%  Mostly Cloudy 
 25/09/2020 - 09:00  10.4°C  10.4°C  1018.6 hPa  67%  11.5 km/h   16.0 km/h  3%  0.01 mm/h  16.1km  72%  Mostly Cloudy 
 25/09/2020 - 10:00  11.1°C  11.1°C  1018.5 hPa  68%  10.8 km/h   12.8 km/h  4%  0.01 mm/h  16.1km  79%  Mostly Cloudy 
 25/09/2020 - 11:00  12.1°C  12.1°C  1018.3 hPa  68%  9.9 km/h   10.3 km/h  4%  0.01 mm/h  16.1km  85%  Mostly Cloudy 

 

Past weather and reports

Past weatherFind in this section the past weather conditions, weather archive, graphics, reports and statistics.

Current conditions

Current weather condition for MontrealAll you need to know about the current weather conditions for Montreal. Weather data is updated every 10 minutes.

Weather forecast

Current Montreal weatherSince 2004, celinium.com website has provided accurate weather forecast for Montreal's island.